sensor_id;sensor_type;location;lat;lon;timestamp;P1;durP1;ratioP1;P2;durP2;ratioP2
40591;SDS011;26301;42.832;23.918;2022-12-08T00:01:49;11.87;;;6.23;;
40591;SDS011;26301;42.832;23.918;2022-12-08T00:04:15;10.00;;;5.20;;
40591;SDS011;26301;42.832;23.918;2022-12-08T00:06:41;10.80;;;5.43;;
40591;SDS011;26301;42.832;23.918;2022-12-08T00:14:37;25.70;;;13.13;;
40591;SDS011;26301;42.832;23.918;2022-12-08T00:17:05;18.17;;;9.60;;
40591;SDS011;26301;42.832;23.918;2022-12-08T00:19:31;11.17;;;6.07;;
40591;SDS011;26301;42.832;23.918;2022-12-08T00:21:58;22.20;;;12.23;;
40591;SDS011;26301;42.832;23.918;2022-12-08T00:24:24;16.20;;;8.77;;
40591;SDS011;26301;42.832;23.918;2022-12-08T00:26:54;12.17;;;7.77;;
40591;SDS011;26301;42.832;23.918;2022-12-08T00:29:20;10.43;;;7.03;;
40591;SDS011;26301;42.832;23.918;2022-12-08T00:31:46;12.03;;;5.73;;
40591;SDS011;26301;42.832;23.918;2022-12-08T00:34:12;9.67;;;5.63;;
40591;SDS011;26301;42.832;23.918;2022-12-08T00:36:39;12.97;;;5.23;;
40591;SDS011;26301;42.832;23.918;2022-12-08T00:39:05;8.47;;;5.43;;
40591;SDS011;26301;42.832;23.918;2022-12-08T00:41:31;10.37;;;5.43;;
40591;SDS011;26301;42.832;23.918;2022-12-08T00:44:16;10.13;;;5.40;;
40591;SDS011;26301;42.832;23.918;2022-12-08T00:46:43;11.80;;;6.23;;
40591;SDS011;26301;42.832;23.918;2022-12-08T00:49:09;9.87;;;5.90;;
40591;SDS011;26301;42.832;23.918;2022-12-08T00:51:35;10.90;;;5.50;;
40591;SDS011;26301;42.832;23.918;2022-12-08T00:54:02;8.27;;;4.73;;
40591;SDS011;26301;42.832;23.918;2022-12-08T00:56:29;7.43;;;4.23;;
40591;SDS011;26301;42.832;23.918;2022-12-08T00:58:54;8.87;;;4.50;;
40591;SDS011;26301;42.832;23.918;2022-12-08T01:01:20;8.90;;;5.33;;
40591;SDS011;26301;42.832;23.918;2022-12-08T01:03:46;8.70;;;5.33;;
40591;SDS011;26301;42.832;23.918;2022-12-08T01:06:11;9.33;;;5.23;;
40591;SDS011;26301;42.832;23.918;2022-12-08T01:08:37;10.50;;;5.03;;
40591;SDS011;26301;42.832;23.918;2022-12-08T01:11:09;9.30;;;5.10;;
40591;SDS011;26301;42.832;23.918;2022-12-08T01:13:38;290.57;;;17.63;;
40591;SDS011;26301;42.832;23.918;2022-12-08T01:16:04;130.93;;;13.37;;
40591;SDS011;26301;42.832;23.918;2022-12-08T01:18:30;162.77;;;14.57;;
40591;SDS011;26301;42.832;23.918;2022-12-08T01:21:03;108.07;;;14.57;;
40591;SDS011;26301;42.832;23.918;2022-12-08T01:23:32;189.47;;;14.13;;
40591;SDS011;26301;42.832;23.918;2022-12-08T01:26:02;141.60;;;13.17;;
40591;SDS011;26301;42.832;23.918;2022-12-08T01:28:29;104.13;;;13.57;;
40591;SDS011;26301;42.832;23.918;2022-12-08T01:30:55;89.70;;;12.83;;
40591;SDS011;26301;42.832;23.918;2022-12-08T01:33:21;92.13;;;30.60;;
40591;SDS011;26301;42.832;23.918;2022-12-08T01:35:47;29.97;;;14.47;;
40591;SDS011;26301;42.832;23.918;2022-12-08T01:38:13;40.67;;;15.73;;
40591;SDS011;26301;42.832;23.918;2022-12-08T01:40:38;30.47;;;15.20;;
40591;SDS011;26301;42.832;23.918;2022-12-08T01:43:04;53.33;;;23.47;;
40591;SDS011;26301;42.832;23.918;2022-12-08T01:45:31;31.10;;;16.20;;
40591;SDS011;26301;42.832;23.918;2022-12-08T01:47:58;24.20;;;13.20;;
40591;SDS011;26301;42.832;23.918;2022-12-08T01:50:27;23.33;;;14.23;;
40591;SDS011;26301;42.832;23.918;2022-12-08T01:52:56;27.90;;;16.27;;
40591;SDS011;26301;42.832;23.918;2022-12-08T01:55:30;23.17;;;15.17;;
40591;SDS011;26301;42.832;23.918;2022-12-08T01:58:00;24.80;;;15.30;;
40591;SDS011;26301;42.832;23.918;2022-12-08T02:00:31;25.30;;;13.57;;
40591;SDS011;26301;42.832;23.918;2022-12-08T02:05:24;17.97;;;11.30;;
40591;SDS011;26301;42.832;23.918;2022-12-08T02:07:52;15.10;;;10.53;;
40591;SDS011;26301;42.832;23.918;2022-12-08T02:10:20;17.20;;;10.97;;
40591;SDS011;26301;42.832;23.918;2022-12-08T02:12:48;18.63;;;9.33;;
40591;SDS011;26301;42.832;23.918;2022-12-08T02:15:17;16.63;;;8.97;;
40591;SDS011;26301;42.832;23.918;2022-12-08T02:20:46;11.90;;;7.33;;
40591;SDS011;26301;42.832;23.918;2022-12-08T02:23:46;12.47;;;7.90;;
40591;SDS011;26301;42.832;23.918;2022-12-08T02:32:05;11.10;;;8.03;;
40591;SDS011;26301;42.832;23.918;2022-12-08T02:45:20;13.63;;;7.60;;
40591;SDS011;26301;42.832;23.918;2022-12-08T02:47:53;16.80;;;7.20;;
40591;SDS011;26301;42.832;23.918;2022-12-08T02:50:19;13.00;;;7.60;;
40591;SDS011;26301;42.832;23.918;2022-12-08T02:52:45;19.00;;;8.20;;
40591;SDS011;26301;42.832;23.918;2022-12-08T02:55:25;16.73;;;8.00;;
40591;SDS011;26301;42.832;23.918;2022-12-08T03:09:01;12.93;;;6.17;;
40591;SDS011;26301;42.832;23.918;2022-12-08T03:11:39;9.10;;;5.47;;
40591;SDS011;26301;42.832;23.918;2022-12-08T03:14:11;11.07;;;5.50;;
40591;SDS011;26301;42.832;23.918;2022-12-08T03:16:41;8.03;;;5.17;;
40591;SDS011;26301;42.832;23.918;2022-12-08T03:19:13;10.57;;;5.50;;
40591;SDS011;26301;42.832;23.918;2022-12-08T03:24:12;9.13;;;4.87;;
40591;SDS011;26301;42.832;23.918;2022-12-08T03:26:49;14.23;;;6.53;;
40591;SDS011;26301;42.832;23.918;2022-12-08T03:29:20;8.63;;;4.80;;
40591;SDS011;26301;42.832;23.918;2022-12-08T03:31:52;15.97;;;7.50;;
40591;SDS011;26301;42.832;23.918;2022-12-08T03:34:20;12.83;;;7.67;;
40591;SDS011;26301;42.832;23.918;2022-12-08T03:36:49;15.87;;;7.43;;
40591;SDS011;26301;42.832;23.918;2022-12-08T03:39:15;16.87;;;8.40;;
40591;SDS011;26301;42.832;23.918;2022-12-08T03:41:41;11.47;;;7.17;;
40591;SDS011;26301;42.832;23.918;2022-12-08T03:44:06;11.73;;;6.90;;
40591;SDS011;26301;42.832;23.918;2022-12-08T03:46:32;15.13;;;7.87;;
40591;SDS011;26301;42.832;23.918;2022-12-08T03:48:58;18.83;;;9.10;;
40591;SDS011;26301;42.832;23.918;2022-12-08T03:51:24;13.90;;;7.37;;
40591;SDS011;26301;42.832;23.918;2022-12-08T03:53:51;13.13;;;7.70;;
40591;SDS011;26301;42.832;23.918;2022-12-08T03:56:24;16.13;;;9.43;;
40591;SDS011;26301;42.832;23.918;2022-12-08T03:58:52;18.13;;;7.63;;
40591;SDS011;26301;42.832;23.918;2022-12-08T04:01:18;19.03;;;9.23;;
40591;SDS011;26301;42.832;23.918;2022-12-08T04:03:44;19.60;;;9.00;;
40591;SDS011;26301;42.832;23.918;2022-12-08T04:06:09;20.87;;;11.00;;
40591;SDS011;26301;42.832;23.918;2022-12-08T04:08:35;20.80;;;10.23;;
40591;SDS011;26301;42.832;23.918;2022-12-08T04:11:01;17.97;;;10.53;;
40591;SDS011;26301;42.832;23.918;2022-12-08T04:13:27;21.27;;;11.40;;
40591;SDS011;26301;42.832;23.918;2022-12-08T04:15:52;25.47;;;12.33;;
40591;SDS011;26301;42.832;23.918;2022-12-08T04:18:18;28.33;;;15.70;;
40591;SDS011;26301;42.832;23.918;2022-12-08T04:20:44;20.47;;;10.53;;
40591;SDS011;26301;42.832;23.918;2022-12-08T04:23:10;18.07;;;10.73;;
40591;SDS011;26301;42.832;23.918;2022-12-08T04:25:37;14.17;;;7.63;;
40591;SDS011;26301;42.832;23.918;2022-12-08T04:28:03;12.93;;;8.10;;
40591;SDS011;26301;42.832;23.918;2022-12-08T04:30:29;12.53;;;7.33;;
40591;SDS011;26301;42.832;23.918;2022-12-08T04:32:55;11.43;;;6.20;;
40591;SDS011;26301;42.832;23.918;2022-12-08T04:35:21;9.27;;;4.97;;
40591;SDS011;26301;42.832;23.918;2022-12-08T04:37:47;9.90;;;5.67;;
40591;SDS011;26301;42.832;23.918;2022-12-08T04:40:12;8.30;;;4.83;;
40591;SDS011;26301;42.832;23.918;2022-12-08T04:42:38;8.77;;;4.60;;
40591;SDS011;26301;42.832;23.918;2022-12-08T04:45:04;7.97;;;5.20;;
40591;SDS011;26301;42.832;23.918;2022-12-08T04:47:30;8.67;;;5.53;;
40591;SDS011;26301;42.832;23.918;2022-12-08T04:49:56;10.27;;;5.00;;
40591;SDS011;26301;42.832;23.918;2022-12-08T04:52:21;17.93;;;5.60;;
40591;SDS011;26301;42.832;23.918;2022-12-08T04:54:47;8.30;;;5.13;;
40591;SDS011;26301;42.832;23.918;2022-12-08T04:57:13;8.50;;;5.57;;
40591;SDS011;26301;42.832;23.918;2022-12-08T04:59:39;9.20;;;5.37;;
40591;SDS011;26301;42.832;23.918;2022-12-08T05:02:04;7.73;;;4.83;;
40591;SDS011;26301;42.832;23.918;2022-12-08T05:04:30;11.27;;;6.77;;
40591;SDS011;26301;42.832;23.918;2022-12-08T05:06:56;9.57;;;5.83;;
40591;SDS011;26301;42.832;23.918;2022-12-08T05:09:22;15.00;;;8.77;;
40591;SDS011;26301;42.832;23.918;2022-12-08T05:11:48;13.60;;;9.27;;
40591;SDS011;26301;42.832;23.918;2022-12-08T05:14:14;10.73;;;7.47;;
40591;SDS011;26301;42.832;23.918;2022-12-08T05:16:41;11.83;;;7.00;;
40591;SDS011;26301;42.832;23.918;2022-12-08T05:19:06;11.97;;;8.07;;
40591;SDS011;26301;42.832;23.918;2022-12-08T05:21:32;12.37;;;8.33;;
40591;SDS011;26301;42.832;23.918;2022-12-08T05:23:58;14.03;;;8.50;;
40591;SDS011;26301;42.832;23.918;2022-12-08T05:26:24;11.43;;;6.40;;
40591;SDS011;26301;42.832;23.918;2022-12-08T05:28:50;6.90;;;4.87;;
40591;SDS011;26301;42.832;23.918;2022-12-08T05:31:15;10.07;;;5.40;;
40591;SDS011;26301;42.832;23.918;2022-12-08T05:33:42;10.47;;;5.57;;
40591;SDS011;26301;42.832;23.918;2022-12-08T05:36:10;10.37;;;5.33;;
40591;SDS011;26301;42.832;23.918;2022-12-08T05:38:37;8.23;;;4.73;;
40591;SDS011;26301;42.832;23.918;2022-12-08T05:41:06;9.50;;;5.60;;
40591;SDS011;26301;42.832;23.918;2022-12-08T05:43:32;8.93;;;4.93;;
40591;SDS011;26301;42.832;23.918;2022-12-08T05:45:58;9.57;;;4.80;;
40591;SDS011;26301;42.832;23.918;2022-12-08T05:48:23;6.07;;;3.90;;
40591;SDS011;26301;42.832;23.918;2022-12-08T05:50:49;9.00;;;4.03;;
40591;SDS011;26301;42.832;23.918;2022-12-08T05:53:16;9.10;;;4.70;;
40591;SDS011;26301;42.832;23.918;2022-12-08T05:55:43;8.80;;;4.30;;
40591;SDS011;26301;42.832;23.918;2022-12-08T05:58:16;12.20;;;6.17;;
40591;SDS011;26301;42.832;23.918;2022-12-08T06:00:43;13.53;;;6.37;;
40591;SDS011;26301;42.832;23.918;2022-12-08T06:03:10;14.03;;;5.83;;
40591;SDS011;26301;42.832;23.918;2022-12-08T06:05:36;12.67;;;5.90;;
40591;SDS011;26301;42.832;23.918;2022-12-08T06:08:02;13.07;;;6.77;;
40591;SDS011;26301;42.832;23.918;2022-12-08T06:10:28;10.27;;;5.87;;
40591;SDS011;26301;42.832;23.918;2022-12-08T06:12:54;11.23;;;6.17;;
40591;SDS011;26301;42.832;23.918;2022-12-08T06:15:19;11.60;;;6.97;;
40591;SDS011;26301;42.832;23.918;2022-12-08T06:17:45;13.10;;;6.57;;
40591;SDS011;26301;42.832;23.918;2022-12-08T06:20:10;14.80;;;7.87;;
40591;SDS011;26301;42.832;23.918;2022-12-08T06:22:36;16.90;;;8.10;;
40591;SDS011;26301;42.832;23.918;2022-12-08T06:25:02;24.73;;;10.97;;
40591;SDS011;26301;42.832;23.918;2022-12-08T06:27:29;21.93;;;11.23;;
40591;SDS011;26301;42.832;23.918;2022-12-08T06:29:54;27.97;;;14.03;;
40591;SDS011;26301;42.832;23.918;2022-12-08T06:32:20;21.83;;;11.80;;
40591;SDS011;26301;42.832;23.918;2022-12-08T06:34:46;37.20;;;19.10;;
40591;SDS011;26301;42.832;23.918;2022-12-08T06:37:11;48.73;;;22.13;;
40591;SDS011;26301;42.832;23.918;2022-12-08T06:39:37;39.63;;;18.40;;
40591;SDS011;26301;42.832;23.918;2022-12-08T06:42:03;20.80;;;11.87;;
40591;SDS011;26301;42.832;23.918;2022-12-08T06:44:47;49.90;;;25.20;;
40591;SDS011;26301;42.832;23.918;2022-12-08T06:47:12;44.67;;;26.27;;
40591;SDS011;26301;42.832;23.918;2022-12-08T06:49:38;50.33;;;26.03;;
40591;SDS011;26301;42.832;23.918;2022-12-08T06:52:04;71.83;;;36.73;;
40591;SDS011;26301;42.832;23.918;2022-12-08T06:54:29;60.73;;;30.53;;
40591;SDS011;26301;42.832;23.918;2022-12-08T06:56:55;60.83;;;37.73;;
40591;SDS011;26301;42.832;23.918;2022-12-08T06:59:21;39.47;;;19.00;;
40591;SDS011;26301;42.832;23.918;2022-12-08T07:01:50;51.67;;;28.73;;
40591;SDS011;26301;42.832;23.918;2022-12-08T07:04:15;60.33;;;34.37;;
40591;SDS011;26301;42.832;23.918;2022-12-08T07:06:41;39.67;;;25.33;;
40591;SDS011;26301;42.832;23.918;2022-12-08T07:09:07;45.87;;;22.90;;
40591;SDS011;26301;42.832;23.918;2022-12-08T07:11:33;39.30;;;25.60;;
40591;SDS011;26301;42.832;23.918;2022-12-08T07:13:58;50.47;;;30.17;;
40591;SDS011;26301;42.832;23.918;2022-12-08T07:16:24;48.03;;;25.90;;
40591;SDS011;26301;42.832;23.918;2022-12-08T07:18:49;36.60;;;22.03;;
40591;SDS011;26301;42.832;23.918;2022-12-08T07:21:15;31.97;;;19.87;;
40591;SDS011;26301;42.832;23.918;2022-12-08T07:23:43;33.07;;;17.70;;
40591;SDS011;26301;42.832;23.918;2022-12-08T07:26:13;32.72;;;17.85;;
40591;SDS011;26301;42.832;23.918;2022-12-08T07:28:39;26.57;;;11.77;;
40591;SDS011;26301;42.832;23.918;2022-12-08T07:31:06;18.03;;;9.67;;
40591;SDS011;26301;42.832;23.918;2022-12-08T07:33:40;27.67;;;11.97;;
40591;SDS011;26301;42.832;23.918;2022-12-08T07:36:05;23.45;;;10.45;;
40591;SDS011;26301;42.832;23.918;2022-12-08T07:38:32;21.57;;;8.57;;
40591;SDS011;26301;42.832;23.918;2022-12-08T07:40:57;23.53;;;9.07;;
40591;SDS011;26301;42.832;23.918;2022-12-08T07:43:23;20.27;;;8.05;;
40591;SDS011;26301;42.832;23.918;2022-12-08T07:45:49;15.98;;;8.13;;
40591;SDS011;26301;42.832;23.918;2022-12-08T07:48:15;16.48;;;8.48;;
40591;SDS011;26301;42.832;23.918;2022-12-08T07:50:41;14.27;;;7.47;;
40591;SDS011;26301;42.832;23.918;2022-12-08T07:53:08;15.98;;;10.50;;
40591;SDS011;26301;42.832;23.918;2022-12-08T07:55:37;18.35;;;9.98;;
40591;SDS011;26301;42.832;23.918;2022-12-08T07:58:04;21.92;;;11.50;;
40591;SDS011;26301;42.832;23.918;2022-12-08T08:00:31;25.20;;;11.98;;
40591;SDS011;26301;42.832;23.918;2022-12-08T08:02:56;13.95;;;9.00;;
40591;SDS011;26301;42.832;23.918;2022-12-08T08:05:22;14.85;;;8.07;;
40591;SDS011;26301;42.832;23.918;2022-12-08T08:07:47;12.85;;;7.97;;
40591;SDS011;26301;42.832;23.918;2022-12-08T08:10:14;12.43;;;7.72;;
40591;SDS011;26301;42.832;23.918;2022-12-08T08:12:40;12.52;;;6.50;;
40591;SDS011;26301;42.832;23.918;2022-12-08T08:15:06;18.13;;;7.10;;
40591;SDS011;26301;42.832;23.918;2022-12-08T08:17:32;10.93;;;7.00;;
40591;SDS011;26301;42.832;23.918;2022-12-08T08:19:59;14.23;;;7.05;;
40591;SDS011;26301;42.832;23.918;2022-12-08T08:22:25;13.25;;;6.45;;
40591;SDS011;26301;42.832;23.918;2022-12-08T08:24:51;9.05;;;5.95;;
40591;SDS011;26301;42.832;23.918;2022-12-08T08:27:20;9.85;;;5.65;;
40591;SDS011;26301;42.832;23.918;2022-12-08T08:29:46;10.43;;;6.32;;
40591;SDS011;26301;42.832;23.918;2022-12-08T08:32:12;11.77;;;5.85;;
40591;SDS011;26301;42.832;23.918;2022-12-08T08:34:38;9.18;;;4.22;;
40591;SDS011;26301;42.832;23.918;2022-12-08T08:37:03;20.25;;;9.98;;
40591;SDS011;26301;42.832;23.918;2022-12-08T08:39:29;8.88;;;5.45;;
40591;SDS011;26301;42.832;23.918;2022-12-08T08:41:55;11.50;;;5.95;;
40591;SDS011;26301;42.832;23.918;2022-12-08T08:44:21;11.18;;;4.82;;
40591;SDS011;26301;42.832;23.918;2022-12-08T08:46:47;9.27;;;4.32;;
40591;SDS011;26301;42.832;23.918;2022-12-08T08:49:13;11.02;;;5.03;;
40591;SDS011;26301;42.832;23.918;2022-12-08T08:51:38;9.00;;;4.47;;
40591;SDS011;26301;42.832;23.918;2022-12-08T08:54:04;8.63;;;3.63;;
40591;SDS011;26301;42.832;23.918;2022-12-08T08:56:30;8.82;;;3.90;;
40591;SDS011;26301;42.832;23.918;2022-12-08T08:58:55;8.15;;;3.55;;
40591;SDS011;26301;42.832;23.918;2022-12-08T09:01:22;7.07;;;4.28;;
40591;SDS011;26301;42.832;23.918;2022-12-08T09:03:50;8.23;;;4.63;;
40591;SDS011;26301;42.832;23.918;2022-12-08T09:06:16;8.43;;;4.72;;
40591;SDS011;26301;42.832;23.918;2022-12-08T09:08:42;5.78;;;3.97;;
40591;SDS011;26301;42.832;23.918;2022-12-08T09:11:08;7.13;;;4.60;;
40591;SDS011;26301;42.832;23.918;2022-12-08T09:13:34;8.77;;;4.40;;
40591;SDS011;26301;42.832;23.918;2022-12-08T09:16:01;7.53;;;4.60;;
40591;SDS011;26301;42.832;23.918;2022-12-08T09:18:27;8.82;;;4.45;;
40591;SDS011;26301;42.832;23.918;2022-12-08T09:20:53;23.98;;;10.52;;
40591;SDS011;26301;42.832;23.918;2022-12-08T09:23:19;10.10;;;6.65;;
40591;SDS011;26301;42.832;23.918;2022-12-08T09:25:45;10.32;;;6.45;;
40591;SDS011;26301;42.832;23.918;2022-12-08T09:28:11;8.35;;;6.25;;
40591;SDS011;26301;42.832;23.918;2022-12-08T09:30:37;9.82;;;3.92;;
40591;SDS011;26301;42.832;23.918;2022-12-08T09:33:03;6.95;;;4.68;;
40591;SDS011;26301;42.832;23.918;2022-12-08T09:35:29;9.55;;;4.95;;
40591;SDS011;26301;42.832;23.918;2022-12-08T09:37:54;10.40;;;5.28;;
40591;SDS011;26301;42.832;23.918;2022-12-08T09:40:22;7.25;;;5.05;;
40591;SDS011;26301;42.832;23.918;2022-12-08T09:42:51;8.20;;;4.43;;
40591;SDS011;26301;42.832;23.918;2022-12-08T09:45:25;6.65;;;4.95;;
40591;SDS011;26301;42.832;23.918;2022-12-08T09:50:50;6.68;;;4.18;;
40591;SDS011;26301;42.832;23.918;2022-12-08T09:53:24;6.63;;;4.05;;
40591;SDS011;26301;42.832;23.918;2022-12-08T09:56:00;8.15;;;4.07;;
40591;SDS011;26301;42.832;23.918;2022-12-08T10:01:27;8.82;;;3.70;;
40591;SDS011;26301;42.832;23.918;2022-12-08T10:03:55;8.57;;;3.72;;
40591;SDS011;26301;42.832;23.918;2022-12-08T10:06:26;6.72;;;3.72;;
40591;SDS011;26301;42.832;23.918;2022-12-08T10:09:02;5.13;;;3.85;;
40591;SDS011;26301;42.832;23.918;2022-12-08T10:19:44;6.40;;;4.30;;
40591;SDS011;26301;42.832;23.918;2022-12-08T10:22:14;9.30;;;4.93;;
40591;SDS011;26301;42.832;23.918;2022-12-08T10:25:00;9.05;;;4.50;;
40591;SDS011;26301;42.832;23.918;2022-12-08T10:27:52;7.85;;;4.55;;
40591;SDS011;26301;42.832;23.918;2022-12-08T10:30:20;11.77;;;5.20;;
40591;SDS011;26301;42.832;23.918;2022-12-08T10:32:47;10.75;;;5.85;;
40591;SDS011;26301;42.832;23.918;2022-12-08T10:35:15;9.50;;;4.97;;
40591;SDS011;26301;42.832;23.918;2022-12-08T10:37:56;7.25;;;4.53;;
40591;SDS011;26301;42.832;23.918;2022-12-08T10:40:23;7.22;;;4.72;;
40591;SDS011;26301;42.832;23.918;2022-12-08T10:42:54;10.52;;;5.10;;
40591;SDS011;26301;42.832;23.918;2022-12-08T10:45:25;8.10;;;5.60;;
40591;SDS011;26301;42.832;23.918;2022-12-08T10:48:05;10.13;;;4.93;;
40591;SDS011;26301;42.832;23.918;2022-12-08T10:50:43;9.48;;;4.47;;
40591;SDS011;26301;42.832;23.918;2022-12-08T10:53:15;7.88;;;4.40;;
40591;SDS011;26301;42.832;23.918;2022-12-08T10:55:47;7.20;;;4.97;;
40591;SDS011;26301;42.832;23.918;2022-12-08T11:03:56;7.75;;;5.10;;
40591;SDS011;26301;42.832;23.918;2022-12-08T11:08:55;6.90;;;4.75;;
40591;SDS011;26301;42.832;23.918;2022-12-08T11:11:37;7.18;;;4.65;;
40591;SDS011;26301;42.832;23.918;2022-12-08T11:14:15;7.30;;;4.45;;
40591;SDS011;26301;42.832;23.918;2022-12-08T11:16:46;5.07;;;3.20;;
40591;SDS011;26301;42.832;23.918;2022-12-08T11:19:15;6.97;;;3.67;;
40591;SDS011;26301;42.832;23.918;2022-12-08T11:21:41;7.55;;;3.75;;
40591;SDS011;26301;42.832;23.918;2022-12-08T11:24:17;9.90;;;4.88;;
40591;SDS011;26301;42.832;23.918;2022-12-08T11:26:52;8.38;;;4.18;;
40591;SDS011;26301;42.832;23.918;2022-12-08T11:29:30;8.45;;;3.47;;
40591;SDS011;26301;42.832;23.918;2022-12-08T11:32:10;4.90;;;2.80;;
40591;SDS011;26301;42.832;23.918;2022-12-08T11:37:10;6.20;;;2.55;;
40591;SDS011;26301;42.832;23.918;2022-12-08T11:39:56;3.20;;;2.00;;
40591;SDS011;26301;42.832;23.918;2022-12-08T11:42:27;5.63;;;2.17;;
40591;SDS011;26301;42.832;23.918;2022-12-08T11:50:50;5.75;;;2.70;;
40591;SDS011;26301;42.832;23.918;2022-12-08T11:53:34;7.80;;;2.22;;
40591;SDS011;26301;42.832;23.918;2022-12-08T12:01:38;5.50;;;2.72;;
40591;SDS011;26301;42.832;23.918;2022-12-08T12:06:47;8.55;;;2.45;;
40591;SDS011;26301;42.832;23.918;2022-12-08T12:19:55;6.70;;;2.78;;
40591;SDS011;26301;42.832;23.918;2022-12-08T12:22:26;7.00;;;3.22;;
40591;SDS011;26301;42.832;23.918;2022-12-08T12:27:33;7.72;;;2.30;;
40591;SDS011;26301;42.832;23.918;2022-12-08T12:30:08;7.50;;;3.10;;
40591;SDS011;26301;42.832;23.918;2022-12-08T12:32:46;6.80;;;3.05;;
40591;SDS011;26301;42.832;23.918;2022-12-08T12:35:39;5.95;;;3.20;;
40591;SDS011;26301;42.832;23.918;2022-12-08T12:38:12;6.97;;;3.17;;
40591;SDS011;26301;42.832;23.918;2022-12-08T12:41:04;9.35;;;3.95;;
40591;SDS011;26301;42.832;23.918;2022-12-08T12:43:33;8.80;;;3.20;;
40591;SDS011;26301;42.832;23.918;2022-12-08T12:48:49;7.07;;;3.15;;
40591;SDS011;26301;42.832;23.918;2022-12-08T12:54:22;6.15;;;3.10;;
40591;SDS011;26301;42.832;23.918;2022-12-08T12:59:34;6.75;;;2.90;;
40591;SDS011;26301;42.832;23.918;2022-12-08T13:02:29;12.07;;;3.65;;
40591;SDS011;26301;42.832;23.918;2022-12-08T13:04:55;7.45;;;3.65;;
40591;SDS011;26301;42.832;23.918;2022-12-08T13:07:23;7.05;;;3.03;;
40591;SDS011;26301;42.832;23.918;2022-12-08T13:10:14;6.00;;;3.17;;
40591;SDS011;26301;42.832;23.918;2022-12-08T13:12:44;6.03;;;3.17;;
40591;SDS011;26301;42.832;23.918;2022-12-08T13:15:24;7.60;;;3.60;;
40591;SDS011;26301;42.832;23.918;2022-12-08T13:17:57;5.32;;;3.15;;
40591;SDS011;26301;42.832;23.918;2022-12-08T13:20:23;8.50;;;3.60;;
40591;SDS011;26301;42.832;23.918;2022-12-08T13:33:21;6.25;;;3.53;;
40591;SDS011;26301;42.832;23.918;2022-12-08T13:36:00;8.15;;;3.15;;
40591;SDS011;26301;42.832;23.918;2022-12-08T13:38:32;6.40;;;3.03;;
40591;SDS011;26301;42.832;23.918;2022-12-08T13:41:02;4.95;;;3.20;;
40591;SDS011;26301;42.832;23.918;2022-12-08T13:43:40;6.55;;;2.63;;
40591;SDS011;26301;42.832;23.918;2022-12-08T13:46:18;6.38;;;3.15;;
40591;SDS011;26301;42.832;23.918;2022-12-08T13:48:56;4.95;;;2.85;;
40591;SDS011;26301;42.832;23.918;2022-12-08T13:51:27;7.43;;;3.35;;
40591;SDS011;26301;42.832;23.918;2022-12-08T13:54:05;7.70;;;2.92;;
40591;SDS011;26301;42.832;23.918;2022-12-08T13:56:38;6.10;;;2.80;;
40591;SDS011;26301;42.832;23.918;2022-12-08T13:59:22;7.53;;;3.20;;
40591;SDS011;26301;42.832;23.918;2022-12-08T14:01:52;6.93;;;3.17;;
40591;SDS011;26301;42.832;23.918;2022-12-08T14:04:19;4.60;;;2.70;;
40591;SDS011;26301;42.832;23.918;2022-12-08T14:07:05;7.95;;;2.83;;
40591;SDS011;26301;42.832;23.918;2022-12-08T14:09:34;7.55;;;2.72;;
40591;SDS011;26301;42.832;23.918;2022-12-08T14:12:22;5.00;;;2.53;;
40591;SDS011;26301;42.832;23.918;2022-12-08T14:14:52;5.75;;;2.90;;
40591;SDS011;26301;42.832;23.918;2022-12-08T14:17:23;5.30;;;2.78;;
40591;SDS011;26301;42.832;23.918;2022-12-08T14:19:59;8.18;;;3.75;;
40591;SDS011;26301;42.832;23.918;2022-12-08T14:22:31;7.35;;;3.28;;
40591;SDS011;26301;42.832;23.918;2022-12-08T14:24:59;6.43;;;3.03;;
40591;SDS011;26301;42.832;23.918;2022-12-08T14:27:25;6.88;;;2.97;;
40591;SDS011;26301;42.832;23.918;2022-12-08T14:29:55;9.13;;;4.28;;
40591;SDS011;26301;42.832;23.918;2022-12-08T14:32:30;7.47;;;3.83;;
40591;SDS011;26301;42.832;23.918;2022-12-08T14:35:00;6.10;;;3.53;;
40591;SDS011;26301;42.832;23.918;2022-12-08T14:37:40;7.82;;;4.72;;
40591;SDS011;26301;42.832;23.918;2022-12-08T14:42:43;6.22;;;3.75;;
40591;SDS011;26301;42.832;23.918;2022-12-08T14:45:12;7.22;;;3.15;;
40591;SDS011;26301;42.832;23.918;2022-12-08T14:47:40;6.65;;;3.33;;
40591;SDS011;26301;42.832;23.918;2022-12-08T14:52:59;9.40;;;3.78;;
40591;SDS011;26301;42.832;23.918;2022-12-08T14:55:25;6.15;;;3.35;;
40591;SDS011;26301;42.832;23.918;2022-12-08T14:57:52;6.80;;;3.60;;
40591;SDS011;26301;42.832;23.918;2022-12-08T15:00:18;7.18;;;4.20;;
40591;SDS011;26301;42.832;23.918;2022-12-08T15:02:46;4.32;;;3.08;;
40591;SDS011;26301;42.832;23.918;2022-12-08T15:05:16;6.50;;;3.50;;
40591;SDS011;26301;42.832;23.918;2022-12-08T15:12:39;6.45;;;3.85;;
40591;SDS011;26301;42.832;23.918;2022-12-08T15:17:44;7.78;;;3.92;;
40591;SDS011;26301;42.832;23.918;2022-12-08T15:20:31;6.93;;;4.00;;
40591;SDS011;26301;42.832;23.918;2022-12-08T15:25:46;8.05;;;3.90;;
40591;SDS011;26301;42.832;23.918;2022-12-08T15:28:13;6.53;;;4.47;;
40591;SDS011;26301;42.832;23.918;2022-12-08T15:30:41;8.65;;;3.63;;
40591;SDS011;26301;42.832;23.918;2022-12-08T15:33:07;8.43;;;4.10;;
40591;SDS011;26301;42.832;23.918;2022-12-08T15:35:33;9.20;;;4.35;;
40591;SDS011;26301;42.832;23.918;2022-12-08T15:37:58;11.20;;;4.07;;
40591;SDS011;26301;42.832;23.918;2022-12-08T15:40:24;8.32;;;4.10;;
40591;SDS011;26301;42.832;23.918;2022-12-08T15:42:52;6.25;;;4.05;;
40591;SDS011;26301;42.832;23.918;2022-12-08T15:45:18;8.38;;;4.40;;
40591;SDS011;26301;42.832;23.918;2022-12-08T15:47:51;7.85;;;4.40;;
40591;SDS011;26301;42.832;23.918;2022-12-08T15:50:17;12.77;;;4.95;;
40591;SDS011;26301;42.832;23.918;2022-12-08T15:52:44;9.35;;;4.47;;
40591;SDS011;26301;42.832;23.918;2022-12-08T15:55:11;6.95;;;3.97;;
40591;SDS011;26301;42.832;23.918;2022-12-08T15:57:38;8.57;;;4.35;;
40591;SDS011;26301;42.832;23.918;2022-12-08T16:00:04;8.65;;;4.38;;
40591;SDS011;26301;42.832;23.918;2022-12-08T16:02:30;13.68;;;6.30;;
40591;SDS011;26301;42.832;23.918;2022-12-08T16:04:56;12.80;;;5.25;;
40591;SDS011;26301;42.832;23.918;2022-12-08T16:07:24;8.63;;;4.70;;
40591;SDS011;26301;42.832;23.918;2022-12-08T16:09:51;8.45;;;4.30;;
40591;SDS011;26301;42.832;23.918;2022-12-08T16:12:21;16.52;;;4.63;;
40591;SDS011;26301;42.832;23.918;2022-12-08T16:15:09;6.80;;;4.07;;
40591;SDS011;26301;42.832;23.918;2022-12-08T16:17:35;6.05;;;3.72;;
40591;SDS011;26301;42.832;23.918;2022-12-08T16:20:03;7.70;;;3.72;;
40591;SDS011;26301;42.832;23.918;2022-12-08T16:22:30;6.38;;;3.53;;
40591;SDS011;26301;42.832;23.918;2022-12-08T16:24:57;7.47;;;3.67;;
40591;SDS011;26301;42.832;23.918;2022-12-08T16:29:53;9.45;;;4.90;;
40591;SDS011;26301;42.832;23.918;2022-12-08T16:32:19;7.40;;;4.43;;
40591;SDS011;26301;42.832;23.918;2022-12-08T16:34:45;10.80;;;4.93;;
40591;SDS011;26301;42.832;23.918;2022-12-08T16:37:13;9.02;;;4.40;;
40591;SDS011;26301;42.832;23.918;2022-12-08T16:39:43;10.57;;;3.90;;
40591;SDS011;26301;42.832;23.918;2022-12-08T16:42:42;6.82;;;3.83;;
40591;SDS011;26301;42.832;23.918;2022-12-08T16:45:08;8.25;;;4.85;;
40591;SDS011;26301;42.832;23.918;2022-12-08T16:47:39;16.23;;;9.52;;